Time;durP1;ratioP1;P1;durP2;ratioP2;P2;SDS_P1;SDS_P2;PMS_P1;PMS_P2;Temp;Humidity;BMP_temperature;BMP_pressure;BME280_temperature;BME280_humidity;BME280_pressure;Samples;Min_cycle;Max_cycle;Signal;HPM_P1;HPM_P2
2020/02/16 00:00:25;;;;;;;2.599999;1.4;;;;;;;5.29;64.31543;95668.07;;;;
2020/02/16 00:01:25;;;;;;;2.599999;1.4;;;;;;;5.29;64.31543;95668.07;;;;
2020/02/16 00:02:26;;;;;;;2.599999;1.4;;;;;;;5.29;64.31543;95668.07;;;;
2020/02/16 00:03:26;;;;;;;2.599999;1.4;;;;;;;5.29;64.31543;95668.07;;;;
2020/02/16 00:04:27;;;;;;;2.599999;1.4;;;;;;;5.29;64.31543;95668.07;;;;
2020/02/16 00:05:27;;;;;;;2.599999;1.4;;;;;;;5.29;64.31543;95668.07;;;;
2020/02/16 00:06:28;;;;;;;2.599999;1.4;;;;;;;5.29;64.31543;95668.07;;;;
2020/02/16 00:07:28;;;;;;;1.55;1.2;;;;;;;5.19;64.68164;95669.34;;;;
2020/02/16 00:08:29;;;;;;;1.55;1.2;;;;;;;5.19;64.68164;95669.34;;;;
2020/02/16 00:09:29;;;;;;;2.2;1.5;;;;;;;5.18;64.2998;95670.76;;;;
2020/02/16 00:10:30;;;;;;;2.2;1.5;;;;;;;5.18;64.2998;95670.76;;;;
2020/02/16 00:11:30;;;;;;;2.2;1.5;;;;;;;5.18;64.2998;95670.76;;;;
2020/02/16 00:12:31;;;;;;;1.55;1.4;;;;;;;5.22;63.82715;95659.16;;;;
2020/02/16 00:13:31;;;;;;;1.55;1.4;;;;;;;5.22;63.82715;95659.16;;;;
2020/02/16 00:14:31;;;;;;;2.3;1.3;;;;;;;5.26;63.3252;95651.48;;;;
2020/02/16 00:15:32;;;;;;;2.3;1.3;;;;;;;5.26;63.3252;95651.48;;;;
2020/02/16 00:16:33;;;;;;;2.3;1.3;;;;;;;5.26;63.3252;95651.48;;;;
2020/02/16 00:17:34;;;;;;;2.3;1.3;;;;;;;5.26;63.3252;95651.48;;;;
2020/02/16 00:18:34;;;;;;;2.3;1.3;;;;;;;5.26;63.3252;95651.48;;;;
2020/02/16 00:19:35;;;;;;;2.3;1.3;;;;;;;5.26;63.3252;95651.48;;;;
2020/02/16 00:20:35;;;;;;;2.3;1.3;;;;;;;5.26;63.3252;95651.48;;;;
2020/02/16 00:21:36;;;;;;;2.3;1.3;;;;;;;5.26;63.3252;95651.48;;;;
2020/02/16 00:22:36;;;;;;;2.3;1.3;;;;;;;5.26;63.3252;95651.48;;;;
2020/02/16 00:23:37;;;;;;;2.3;1.3;;;;;;;5.26;63.3252;95651.48;;;;
2020/02/16 00:24:37;;;;;;;2.3;1.3;;;;;;;5.26;63.3252;95651.48;;;;
2020/02/16 00:25:37;;;;;;;1.65;1.1;;;;;;;5.03;64.03223;95673.22;;;;
2020/02/16 00:26:38;;;;;;;1.65;1.1;;;;;;;5.03;64.03223;95673.22;;;;
2020/02/16 00:27:38;;;;;;;1.65;1.1;;;;;;;5.03;64.03223;95673.22;;;;
2020/02/16 00:28:39;;;;;;;2.15;1.4;;;;;;;5.03;63.87402;95674.55;;;;
2020/02/16 00:29:39;;;;;;;2.15;1.4;;;;;;;5.03;63.87402;95674.55;;;;
2020/02/16 00:30:40;;;;;;;1.65;1.5;;;;;;;5.07;63.41406;95665.94;;;;
2020/02/16 00:31:40;;;;;;;1.65;1.5;;;;;;;5.07;63.41406;95665.94;;;;
2020/02/16 00:32:41;;;;;;;1.65;1.5;;;;;;;5.07;63.41406;95665.94;;;;
2020/02/16 00:33:41;;;;;;;2.35;1.6;;;;;;;5.11;63.1123;95670.81;;;;
2020/02/16 00:34:42;;;;;;;2.35;1.6;;;;;;;5.11;63.1123;95670.81;;;;
2020/02/16 00:35:42;;;;;;;2.35;1.6;;;;;;;5.11;63.1123;95670.81;;;;
2020/02/16 00:36:42;;;;;;;2.35;1.6;;;;;;;5.11;63.1123;95670.81;;;;
2020/02/16 00:37:43;;;;;;;2.35;1.6;;;;;;;5.11;63.1123;95670.81;;;;
2020/02/16 00:38:43;;;;;;;2.35;1.6;;;;;;;5.11;63.1123;95670.81;;;;
2020/02/16 00:39:44;;;;;;;2.35;1.6;;;;;;;5.11;63.1123;95670.81;;;;
2020/02/16 00:40:44;;;;;;;2.35;1.6;;;;;;;5.11;63.1123;95670.81;;;;
2020/02/16 00:41:45;;;;;;;2.35;1.6;;;;;;;5.11;63.1123;95670.81;;;;
2020/02/16 00:42:47;;;;;;;2.35;1.6;;;;;;;5.11;63.1123;95670.81;;;;
2020/02/16 00:43:47;;;;;;;2.2;1.35;;;;;;;4.81;63.72461;95688.03;;;;
2020/02/16 00:44:48;;;;;;;2.2;1.35;;;;;;;4.81;63.72461;95688.03;;;;
2020/02/16 00:45:48;;;;;;;2.2;1.35;;;;;;;4.81;63.72461;95688.03;;;;
2020/02/16 00:46:49;;;;;;;1.7;1.3;;;;;;;4.8;63.63867;95679.69;;;;
2020/02/16 00:47:49;;;;;;;1.7;1.3;;;;;;;4.8;63.63867;95679.69;;;;
2020/02/16 00:48:50;;;;;;;1.7;1.3;;;;;;;4.8;63.63867;95679.69;;;;
2020/02/16 00:49:50;;;;;;;1.9;1.35;;;;;;;4.86;63.34082;95686.02;;;;
2020/02/16 00:50:51;;;;;;;1.9;1.35;;;;;;;4.86;63.34082;95686.02;;;;
2020/02/16 00:51:51;;;;;;;1.65;1.35;;;;;;;4.93;63.1377;95688.36;;;;
2020/02/16 00:52:51;;;;;;;1.65;1.35;;;;;;;4.93;63.1377;95688.36;;;;
2020/02/16 00:53:52;;;;;;;1.65;1.35;;;;;;;4.93;63.1377;95688.36;;;;
2020/02/16 00:54:52;;;;;;;1.65;1.35;;;;;;;4.93;63.1377;95688.36;;;;
2020/02/16 00:55:53;;;;;;;1.65;1.35;;;;;;;4.93;63.1377;95688.36;;;;
2020/02/16 00:56:53;;;;;;;1.65;1.35;;;;;;;4.93;63.1377;95688.36;;;;
2020/02/16 00:57:54;;;;;;;1.65;1.35;;;;;;;4.93;63.1377;95688.36;;;;
2020/02/16 00:58:54;;;;;;;1.65;1.35;;;;;;;4.93;63.1377;95688.36;;;;
2020/02/16 00:59:55;;;;;;;1.65;1.35;;;;;;;4.93;63.1377;95688.36;;;;
2020/02/16 01:01:40;;;;;;;1.65;1.35;;;;;;;4.93;63.1377;95688.36;;;;
2020/02/16 01:03:06;;;;;;;1.3;1.2;;;;;;;4.85;63.55078;95696;;;;
2020/02/16 01:05:36;;;;;;;1.3;1.2;;;;;;;4.85;63.55078;95696;;;;
2020/02/16 01:06:37;;;;;;;1.7;1.35;;;;;;;4.89;63.4707;95706.64;;;;
2020/02/16 01:07:39;;;;;;;1.7;1.35;;;;;;;4.89;63.4707;95706.64;;;;
2020/02/16 01:08:40;;;;;;;1.7;1.35;;;;;;;4.89;63.4707;95706.64;;;;
2020/02/16 01:09:40;;;;;;;1.7;1.35;;;;;;;4.89;63.4707;95706.64;;;;
2020/02/16 01:10:41;;;;;;;1.7;1.35;;;;;;;4.89;63.4707;95706.64;;;;
2020/02/16 01:11:41;;;;;;;1.7;1.35;;;;;;;4.89;63.4707;95706.64;;;;
2020/02/16 01:12:42;;;;;;;1.7;1.35;;;;;;;4.89;63.4707;95706.64;;;;
2020/02/16 01:13:42;;;;;;;1.7;1.35;;;;;;;4.89;63.4707;95706.64;;;;
2020/02/16 01:14:43;;;;;;;1.7;1.35;;;;;;;4.89;63.4707;95706.64;;;;
2020/02/16 01:15:43;;;;;;;1.3;1.2;;;;;;;4.73;63.65918;95690.84;;;;
2020/02/16 01:16:44;;;;;;;1.3;1.2;;;;;;;4.73;63.65918;95690.84;;;;
2020/02/16 01:17:44;;;;;;;1.3;1.2;;;;;;;4.73;63.65918;95690.84;;;;
2020/02/16 01:18:45;;;;;;;1.7;1.3;;;;;;;4.74;63.58789;95684.88;;;;
2020/02/16 01:19:45;;;;;;;1.7;1.3;;;;;;;4.74;63.58789;95684.88;;;;
2020/02/16 01:20:45;;;;;;;1.7;1.3;;;;;;;4.74;63.58789;95684.88;;;;
2020/02/16 01:21:46;;;;;;;1.7;1.3;;;;;;;4.74;63.58789;95684.88;;;;
2020/02/16 01:22:46;;;;;;;1.7;1.3;;;;;;;4.74;63.58789;95684.88;;;;
2020/02/16 01:23:47;;;;;;;1.7;1.3;;;;;;;4.74;63.58789;95684.88;;;;
2020/02/16 01:24:47;;;;;;;1.7;1.3;;;;;;;4.74;63.58789;95684.88;;;;
2020/02/16 01:25:48;;;;;;;1.7;1.3;;;;;;;4.74;63.58789;95684.88;;;;
2020/02/16 01:26:48;;;;;;;1.7;1.3;;;;;;;4.74;63.58789;95684.88;;;;
2020/02/16 01:27:48;;;;;;;1.7;1.3;;;;;;;4.74;63.58789;95684.88;;;;
2020/02/16 01:28:49;;;;;;;1.3;1.2;;;;;;;4.56;63.91113;95676.45;;;;
2020/02/16 01:29:49;;;;;;;1.3;1.2;;;;;;;4.56;63.91113;95676.45;;;;
2020/02/16 01:30:50;;;;;;;1.3;1.2;;;;;;;4.56;63.91113;95676.45;;;;
2020/02/16 01:31:50;;;;;;;2.2;1.45;;;;;;;4.54;63.9502;95674.89;;;;
2020/02/16 01:32:51;;;;;;;2.2;1.45;;;;;;;4.54;63.9502;95674.89;;;;
2020/02/16 01:33:51;;;;;;;2.2;1.45;;;;;;;4.54;63.9502;95674.89;;;;
2020/02/16 01:34:52;;;;;;;1.4;1.3;;;;;;;4.58;63.6582;95673.6;;;;
2020/02/16 01:35:52;;;;;;;1.4;1.3;;;;;;;4.58;63.6582;95673.6;;;;
2020/02/16 01:36:52;;;;;;;1.6;1.2;;;;;;;4.61;63.38867;95676.71;;;;
2020/02/16 01:37:53;;;;;;;1.6;1.2;;;;;;;4.61;63.38867;95676.71;;;;
2020/02/16 01:38:53;;;;;;;1.6;1.2;;;;;;;4.61;63.38867;95676.71;;;;
2020/02/16 01:39:54;;;;;;;1.6;1.2;;;;;;;4.61;63.38867;95676.71;;;;
2020/02/16 01:40:54;;;;;;;1.6;1.2;;;;;;;4.61;63.38867;95676.71;;;;
2020/02/16 01:41:55;;;;;;;1.6;1.2;;;;;;;4.61;63.38867;95676.71;;;;
2020/02/16 01:42:55;;;;;;;1.6;1.2;;;;;;;4.61;63.38867;95676.71;;;;
2020/02/16 01:43:56;;;;;;;1.6;1.2;;;;;;;4.61;63.38867;95676.71;;;;
2020/02/16 01:44:56;;;;;;;1.6;1.2;;;;;;;4.61;63.38867;95676.71;;;;
2020/02/16 01:45:57;;;;;;;1.6;1.2;;;;;;;4.61;63.38867;95676.71;;;;
2020/02/16 01:46:57;;;;;;;1.6;1.2;;;;;;;4.61;63.38867;95676.71;;;;
2020/02/16 01:47:58;;;;;;;2.1;1.55;;;;;;;4.39;63.97949;95663.94;;;;
2020/02/16 01:48:58;;;;;;;2.1;1.55;;;;;;;4.39;63.97949;95663.94;;;;
2020/02/16 01:49:58;;;;;;;1.6;1.4;;;;;;;4.39;63.89453;95660.74;;;;
2020/02/16 01:50:59;;;;;;;1.6;1.4;;;;;;;4.39;63.89453;95660.74;;;;
2020/02/16 01:52:02;;;;;;;1.6;1.4;;;;;;;4.39;63.89453;95660.74;;;;
2020/02/16 01:53:07;;;;;;;1.6;1.4;;;;;;;4.39;63.89453;95660.74;;;;
2020/02/16 01:54:15;;;;;;;1.6;1.4;;;;;;;4.39;63.89453;95660.74;;;;
2020/02/16 01:55:21;;;;;;;1.6;1.4;;;;;;;4.39;63.89453;95660.74;;;;
2020/02/16 01:56:21;;;;;;;1.6;1.4;;;;;;;4.39;63.89453;95660.74;;;;
2020/02/16 01:57:23;;;;;;;1.6;1.4;;;;;;;4.39;63.89453;95660.74;;;;
2020/02/16 01:58:26;;;;;;;1.6;1.4;;;;;;;4.39;63.89453;95660.74;;;;
2020/02/16 01:59:27;;;;;;;1.6;1.4;;;;;;;4.39;63.89453;95660.74;;;;
2020/02/16 02:00:30;;;;;;;1.85;1.55;;;;;;;4.24;64.02051;95620.79;;;;
2020/02/16 02:01:31;;;;;;;1.85;1.55;;;;;;;4.24;64.02051;95620.79;;;;
2020/02/16 02:02:31;;;;;;;1.85;1.55;;;;;;;4.24;64.02051;95620.79;;;;
2020/02/16 02:03:32;;;;;;;1.5;1.3;;;;;;;4.26;64.10742;95617.02;;;;
2020/02/16 02:04:32;;;;;;;1.5;1.3;;;;;;;4.26;64.10742;95617.02;;;;
2020/02/16 02:05:34;;;;;;;1.5;1.3;;;;;;;4.26;64.10742;95617.02;;;;
2020/02/16 02:06:34;;;;;;;1.5;1.3;;;;;;;4.26;64.10742;95617.02;;;;
2020/02/16 02:07:35;;;;;;;1.5;1.3;;;;;;;4.26;64.10742;95617.02;;;;
2020/02/16 02:08:37;;;;;;;1.5;1.3;;;;;;;4.26;64.10742;95617.02;;;;
2020/02/16 02:09:38;;;;;;;1.5;1.3;;;;;;;4.26;64.10742;95617.02;;;;
2020/02/16 02:10:38;;;;;;;1.5;1.3;;;;;;;4.26;64.10742;95617.02;;;;
2020/02/16 02:11:47;;;;;;;1.5;1.3;;;;;;;4.26;64.10742;95617.02;;;;
2020/02/16 02:13:18;;;;;;;1.5;1.3;;;;;;;4.26;64.10742;95617.02;;;;
2020/02/16 02:15:11;;;;;;;1.3;1.2;;;;;;;4.26;64.21484;95604.49;;;;
2020/02/16 02:18:00;;;;;;;1.3;1.2;;;;;;;4.35;63.87891;95612.67;;;;
2020/02/16 02:19:32;;;;;;;1.3;1.2;;;;;;;4.35;63.87891;95612.67;;;;
2020/02/16 02:20:45;;;;;;;1.3;1.2;;;;;;;4.35;63.87891;95612.67;;;;
2020/02/16 02:21:59;;;;;;;1.3;1.2;;;;;;;4.35;63.87891;95612.67;;;;
2020/02/16 02:23:10;;;;;;;1.3;1.2;;;;;;;4.35;63.87891;95612.67;;;;
2020/02/16 02:24:17;;;;;;;1.3;1.2;;;;;;;4.35;63.87891;95612.67;;;;
2020/02/16 02:25:25;;;;;;;1.3;1.2;;;;;;;4.35;63.87891;95612.67;;;;
2020/02/16 02:27:00;;;;;;;1.7;1.4;;;;;;;4.48;63.76074;95606.13;;;;
2020/02/16 02:28:11;;;;;;;1.7;1.4;;;;;;;4.48;63.76074;95606.13;;;;
2020/02/16 02:29:42;;;;;;;1.3;1.15;;;;;;;4.54;63.41016;95599.61;;;;
2020/02/16 02:30:52;;;;;;;1.3;1.15;;;;;;;4.54;63.41016;95599.61;;;;
2020/02/16 02:32:04;;;;;;;1.3;1.15;;;;;;;4.54;63.41016;95599.61;;;;
2020/02/16 02:33:18;;;;;;;1.3;1.15;;;;;;;4.54;63.41016;95599.61;;;;
2020/02/16 02:34:20;;;;;;;1.3;1.15;;;;;;;4.54;63.41016;95599.61;;;;
2020/02/16 02:35:24;;;;;;;1.3;1.15;;;;;;;4.54;63.41016;95599.61;;;;
2020/02/16 02:38:08;;;;;;;1.3;1.15;;;;;;;4.54;63.41016;95599.61;;;;
2020/02/16 02:39:20;;;;;;;1.3;1.15;;;;;;;4.54;63.41016;95599.61;;;;
2020/02/16 02:40:25;;;;;;;1.4;1.3;;;;;;;4.53;63.50293;95587.78;;;;
2020/02/16 02:41:30;;;;;;;1.4;1.3;;;;;;;4.53;63.50293;95587.78;;;;
2020/02/16 02:42:59;;;;;;;1.4;1.3;;;;;;;4.56;63.22168;95589.14;;;;
2020/02/16 02:44:26;;;;;;;1.4;1.3;;;;;;;4.56;63.22168;95589.14;;;;
2020/02/16 02:45:29;;;;;;;1.4;1.3;;;;;;;4.56;63.22168;95589.14;;;;
2020/02/16 02:46:30;;;;;;;1.4;1.3;;;;;;;4.56;63.22168;95589.14;;;;
2020/02/16 02:47:33;;;;;;;1.4;1.3;;;;;;;4.56;63.22168;95589.14;;;;
2020/02/16 02:48:34;;;;;;;1.4;1.3;;;;;;;4.56;63.22168;95589.14;;;;
2020/02/16 02:49:35;;;;;;;1.4;1.3;;;;;;;4.56;63.22168;95589.14;;;;
2020/02/16 02:51:40;;;;;;;1.4;1.3;;;;;;;4.56;63.22168;95589.14;;;;
2020/02/16 02:52:41;;;;;;;1.4;1.3;;;;;;;4.56;63.22168;95589.14;;;;
2020/02/16 02:53:41;;;;;;;1.6;1.3;;;;;;;4.41;63.43164;95590.66;;;;
2020/02/16 02:54:42;;;;;;;1.6;1.3;;;;;;;4.41;63.43164;95590.66;;;;
2020/02/16 02:55:43;;;;;;;1.6;1.3;;;;;;;4.41;63.43164;95590.66;;;;
2020/02/16 02:56:45;;;;;;;1.7;1.4;;;;;;;4.39;63.43945;95581.87;;;;
2020/02/16 02:57:50;;;;;;;1.7;1.4;;;;;;;4.39;63.43945;95581.87;;;;
2020/02/16 02:59:01;;;;;;;1.7;1.4;;;;;;;4.39;63.43945;95581.87;;;;
2020/02/16 03:03:18;;;;;;;1.7;1.4;;;;;;;4.39;63.43945;95581.87;;;;
2020/02/16 03:04:31;;;;;;;1.7;1.4;;;;;;;4.39;63.43945;95581.87;;;;
2020/02/16 03:05:46;;;;;;;1.7;1.4;;;;;;;4.39;63.43945;95581.87;;;;
2020/02/16 03:07:17;;;;;;;1.3;1.2;;;;;;;4.21;63.6582;95547.16;;;;
2020/02/16 03:08:40;;;;;;;1.3;1.2;;;;;;;4.21;63.6582;95547.16;;;;
2020/02/16 03:09:56;;;;;;;1.1;1;;;;;;;4.24;63.56738;95537.42;;;;
2020/02/16 03:13:09;;;;;;;1.1;1;;;;;;;4.24;63.56738;95537.42;;;;
2020/02/16 03:14:18;;;;;;;1.1;1;;;;;;;4.24;63.56738;95537.42;;;;
2020/02/16 03:16:40;;;;;;;1.1;1;;;;;;;4.24;63.56738;95537.42;;;;
2020/02/16 03:18:01;;;;;;;1.1;1;;;;;;;4.24;63.56738;95537.42;;;;
2020/02/16 03:19:51;;;;;;;1.75;1.2;;;;;;;4.31;63.54492;95534.83;;;;
2020/02/16 03:21:01;;;;;;;1.75;1.2;;;;;;;4.31;63.54492;95534.83;;;;
2020/02/16 03:22:04;;;;;;;1.75;1.2;;;;;;;4.31;63.54492;95534.83;;;;
2020/02/16 03:23:05;;;;;;;1.75;1.2;;;;;;;4.31;63.54492;95534.83;;;;
2020/02/16 03:24:08;;;;;;;1.75;1.2;;;;;;;4.31;63.54492;95534.83;;;;
2020/02/16 03:25:10;;;;;;;1.75;1.2;;;;;;;4.31;63.54492;95534.83;;;;
2020/02/16 03:26:28;;;;;;;1.75;1.2;;;;;;;4.31;63.54492;95534.83;;;;
2020/02/16 03:27:40;;;;;;;1.75;1.2;;;;;;;4.31;63.54492;95534.83;;;;
2020/02/16 03:28:42;;;;;;;1.75;1.2;;;;;;;4.31;63.54492;95534.83;;;;
2020/02/16 03:29:46;;;;;;;1.75;1.2;;;;;;;4.31;63.54492;95534.83;;;;
2020/02/16 03:30:50;;;;;;;1.7;1.2;;;;;;;4.39;63.4502;95525.75;;;;
2020/02/16 03:31:56;;;;;;;1.7;1.2;;;;;;;4.39;63.4502;95525.75;;;;
2020/02/16 03:32:57;;;;;;;1.7;1.2;;;;;;;4.39;63.4502;95525.75;;;;
2020/02/16 03:33:58;;;;;;;1.7;1.2;;;;;;;4.39;63.4502;95525.75;;;;
2020/02/16 03:34:59;;;;;;;1.7;1.2;;;;;;;4.39;63.4502;95525.75;;;;
2020/02/16 03:36:03;;;;;;;1.7;1.2;;;;;;;4.39;63.4502;95525.75;;;;
2020/02/16 03:37:08;;;;;;;1.7;1.2;;;;;;;4.39;63.4502;95525.75;;;;
2020/02/16 03:38:09;;;;;;;1.7;1.2;;;;;;;4.39;63.4502;95525.75;;;;
2020/02/16 03:39:09;;;;;;;1.7;1.2;;;;;;;4.39;63.4502;95525.75;;;;
2020/02/16 03:40:10;;;;;;;1.7;1.2;;;;;;;4.39;63.4502;95525.75;;;;
2020/02/16 03:41:12;;;;;;;1.2;1.1;;;;;;;4.26;63.54688;95545.28;;;;
2020/02/16 03:42:15;;;;;;;1.2;1.1;;;;;;;4.26;63.54688;95545.28;;;;
2020/02/16 03:43:20;;;;;;;1.2;1.1;;;;;;;4.26;63.54688;95545.28;;;;
2020/02/16 03:44:22;;;;;;;2.2;1.5;;;;;;;4.25;63.53711;95545.85;;;;
2020/02/16 03:45:24;;;;;;;2.2;1.5;;;;;;;4.25;63.53711;95545.85;;;;
2020/02/16 03:46:25;;;;;;;2.2;1.5;;;;;;;4.25;63.53711;95545.85;;;;
2020/02/16 03:47:26;;;;;;;2.2;1.5;;;;;;;4.25;63.53711;95545.85;;;;
2020/02/16 03:48:27;;;;;;;2.2;1.5;;;;;;;4.25;63.53711;95545.85;;;;
2020/02/16 03:49:28;;;;;;;2.2;1.5;;;;;;;4.25;63.53711;95545.85;;;;
2020/02/16 03:50:31;;;;;;;2.2;1.5;;;;;;;4.25;63.53711;95545.85;;;;
2020/02/16 03:51:32;;;;;;;2.2;1.5;;;;;;;4.25;63.53711;95545.85;;;;
2020/02/16 03:52:32;;;;;;;2.2;1.5;;;;;;;4.25;63.53711;95545.85;;;;
2020/02/16 03:53:33;;;;;;;2.2;1.5;;;;;;;4.25;63.53711;95545.85;;;;
2020/02/16 03:54:34;;;;;;;2.4;1.65;;;;;;;3.87;63.75488;95541.25;;;;
2020/02/16 03:55:35;;;;;;;2.4;1.65;;;;;;;3.87;63.75488;95541.25;;;;
2020/02/16 03:56:35;;;;;;;2.4;1.65;;;;;;;3.87;63.75488;95541.25;;;;
2020/02/16 03:57:36;;;;;;;2.4;1.65;;;;;;;3.87;63.75488;95541.25;;;;
2020/02/16 03:58:37;;;;;;;2.4;1.65;;;;;;;3.87;63.75488;95541.25;;;;
2020/02/16 03:59:39;;;;;;;2.4;1.65;;;;;;;3.87;63.75488;95541.25;;;;
2020/02/16 04:00:40;;;;;;;2.4;1.65;;;;;;;3.87;63.75488;95541.25;;;;
2020/02/16 04:01:41;;;;;;;2.4;1.65;;;;;;;3.87;63.75488;95541.25;;;;
2020/02/16 04:02:42;;;;;;;2.4;1.65;;;;;;;3.87;63.75488;95541.25;;;;
2020/02/16 04:03:42;;;;;;;2.4;1.65;;;;;;;3.87;63.75488;95541.25;;;;
2020/02/16 04:04:42;;;;;;;2.4;1.65;;;;;;;3.87;63.75488;95541.25;;;;
2020/02/16 04:05:43;;;;;;;2.7;1.5;;;;;;;3.5;64.16406;95538.26;;;;
2020/02/16 04:06:44;;;;;;;2.7;1.5;;;;;;;3.5;64.16406;95538.26;;;;
2020/02/16 04:07:45;;;;;;;2.7;1.5;;;;;;;3.5;64.16406;95538.26;;;;
2020/02/16 04:08:45;;;;;;;2.7;1.5;;;;;;;3.5;64.16406;95538.26;;;;
2020/02/16 04:09:46;;;;;;;2.7;1.5;;;;;;;3.5;64.16406;95538.26;;;;
2020/02/16 04:10:47;;;;;;;2.7;1.5;;;;;;;3.5;64.16406;95538.26;;;;
2020/02/16 04:11:47;;;;;;;2.7;1.5;;;;;;;3.5;64.16406;95538.26;;;;
2020/02/16 04:12:48;;;;;;;2.7;1.5;;;;;;;3.5;64.16406;95538.26;;;;
2020/02/16 04:13:49;;;;;;;2.7;1.5;;;;;;;3.5;64.16406;95538.26;;;;
2020/02/16 04:14:49;;;;;;;2.7;1.5;;;;;;;3.5;64.16406;95538.26;;;;
2020/02/16 04:15:50;;;;;;;2.55;1.75;;;;;;;3.13;64.58398;95539.28;;;;
2020/02/16 04:16:50;;;;;;;2.55;1.75;;;;;;;3.13;64.58398;95539.28;;;;
2020/02/16 04:17:52;;;;;;;2.55;1.75;;;;;;;3.13;64.58398;95539.28;;;;
2020/02/16 04:18:53;;;;;;;2.55;1.75;;;;;;;3.13;64.58398;95539.28;;;;
2020/02/16 04:19:55;;;;;;;2.55;1.75;;;;;;;3.13;64.58398;95539.28;;;;
2020/02/16 04:21:01;;;;;;;2.55;1.75;;;;;;;3.13;64.58398;95539.28;;;;
2020/02/16 04:22:41;;;;;;;2.55;1.75;;;;;;;3.13;64.58398;95539.28;;;;
2020/02/16 04:23:43;;;;;;;2.55;1.75;;;;;;;3.13;64.58398;95539.28;;;;
2020/02/16 04:24:43;;;;;;;2.55;1.75;;;;;;;3.13;64.58398;95539.28;;;;
2020/02/16 04:25:48;;;;;;;2.55;1.75;;;;;;;3.13;64.58398;95539.28;;;;
2020/02/16 04:27:01;;;;;;;3.6;1.95;;;;;;;2.96;64.96973;95526.65;;;;
2020/02/16 04:28:03;;;;;;;3.6;1.95;;;;;;;2.96;64.96973;95526.65;;;;
2020/02/16 04:29:05;;;;;;;3.6;1.95;;;;;;;2.96;64.96973;95526.65;;;;
2020/02/16 04:30:41;;;;;;;3.6;1.95;;;;;;;2.96;64.96973;95526.65;;;;
2020/02/16 04:31:41;;;;;;;3.6;1.95;;;;;;;2.96;64.96973;95526.65;;;;
2020/02/16 04:32:42;;;;;;;3.6;1.95;;;;;;;2.96;64.96973;95526.65;;;;
2020/02/16 04:33:53;;;;;;;3.6;1.95;;;;;;;2.96;64.96973;95526.65;;;;
2020/02/16 04:34:54;;;;;;;3.6;1.95;;;;;;;2.96;64.96973;95526.65;;;;
2020/02/16 04:35:54;;;;;;;3.6;1.95;;;;;;;2.96;64.96973;95526.65;;;;
2020/02/16 04:36:56;;;;;;;2.1;1.7;;;;;;;2.83;65.22266;95511.87;;;;
2020/02/16 04:37:57;;;;;;;2.1;1.7;;;;;;;2.83;65.22266;95511.87;;;;
2020/02/16 04:38:57;;;;;;;2.1;1.7;;;;;;;2.83;65.22266;95511.87;;;;
2020/02/16 04:39:57;;;;;;;2.1;1.7;;;;;;;2.83;65.22266;95511.87;;;;
2020/02/16 04:40:58;;;;;;;2.1;1.7;;;;;;;2.83;65.22266;95511.87;;;;
2020/02/16 04:41:59;;;;;;;2.1;1.7;;;;;;;2.83;65.22266;95511.87;;;;
2020/02/16 04:42:59;;;;;;;2.1;1.7;;;;;;;2.83;65.22266;95511.87;;;;
2020/02/16 04:44:00;;;;;;;2.1;1.7;;;;;;;2.83;65.22266;95511.87;;;;
2020/02/16 04:45:00;;;;;;;2.1;1.7;;;;;;;2.83;65.22266;95511.87;;;;
2020/02/16 04:46:01;;;;;;;2.1;1.7;;;;;;;2.83;65.22266;95511.87;;;;
2020/02/16 04:47:01;;;;;;;2.1;1.7;;;;;;;2.83;65.22266;95511.87;;;;
2020/02/16 04:48:02;;;;;;;2.2;1.2;;;;;;;2.84;65.53027;95488.09;;;;
2020/02/16 04:49:02;;;;;;;2.2;1.2;;;;;;;2.84;65.53027;95488.09;;;;
2020/02/16 04:50:03;;;;;;;2.2;1.2;;;;;;;2.84;65.53027;95488.09;;;;
2020/02/16 04:51:03;;;;;;;2.2;1.2;;;;;;;2.84;65.53027;95488.09;;;;
2020/02/16 04:52:04;;;;;;;2.2;1.2;;;;;;;2.84;65.53027;95488.09;;;;
2020/02/16 04:53:04;;;;;;;2.2;1.2;;;;;;;2.84;65.53027;95488.09;;;;
2020/02/16 04:54:05;;;;;;;2.2;1.2;;;;;;;2.84;65.53027;95488.09;;;;
2020/02/16 04:55:05;;;;;;;2.2;1.2;;;;;;;2.84;65.53027;95488.09;;;;
2020/02/16 04:56:06;;;;;;;2.2;1.2;;;;;;;2.84;65.53027;95488.09;;;;
2020/02/16 04:57:06;;;;;;;2.2;1.2;;;;;;;2.84;65.53027;95488.09;;;;
2020/02/16 04:58:07;;;;;;;1.2;1.1;;;;;;;3.01;65.54785;95481.58;;;;
2020/02/16 04:59:07;;;;;;;1.2;1.1;;;;;;;3.01;65.54785;95481.58;;;;
2020/02/16 05:00:08;;;;;;;1.2;1.1;;;;;;;3.01;65.54785;95481.58;;;;
2020/02/16 05:01:09;;;;;;;1.5;1.2;;;;;;;3.16;65.61133;95486.91;;;;
2020/02/16 05:02:14;;;;;;;1.5;1.2;;;;;;;3.16;65.61133;95486.91;;;;
2020/02/16 05:03:17;;;;;;;1.5;1.2;;;;;;;3.16;65.61133;95486.91;;;;
2020/02/16 05:04:17;;;;;;;1.5;1.2;;;;;;;3.16;65.61133;95486.91;;;;
2020/02/16 05:05:18;;;;;;;1.5;1.2;;;;;;;3.16;65.61133;95486.91;;;;
2020/02/16 05:06:18;;;;;;;1.5;1.2;;;;;;;3.16;65.61133;95486.91;;;;
2020/02/16 05:07:19;;;;;;;1.5;1.2;;;;;;;3.16;65.61133;95486.91;;;;
2020/02/16 05:08:19;;;;;;;1.5;1.2;;;;;;;3.16;65.61133;95486.91;;;;
2020/02/16 05:09:20;;;;;;;1.5;1.2;;;;;;;3.16;65.61133;95486.91;;;;
2020/02/16 05:10:20;;;;;;;1.5;1.2;;;;;;;3.16;65.61133;95486.91;;;;
2020/02/16 05:11:21;;;;;;;3.200001;1.2;;;;;;;3.65;65.21094;95493.24;;;;
2020/02/16 05:12:21;;;;;;;3.200001;1.2;;;;;;;3.65;65.21094;95493.24;;;;
2020/02/16 05:13:23;;;;;;;3.200001;1.2;;;;;;;3.65;65.21094;95493.24;;;;
2020/02/16 05:14:24;;;;;;;1.2;1.1;;;;;;;3.82;64.81445;95489.33;;;;
2020/02/16 05:15:24;;;;;;;1.2;1.1;;;;;;;3.82;64.81445;95489.33;;;;
2020/02/16 05:16:25;;;;;;;1.2;1.1;;;;;;;3.82;64.81445;95489.33;;;;
2020/02/16 05:17:25;;;;;;;1.2;1.1;;;;;;;3.82;64.81445;95489.33;;;;
2020/02/16 05:18:27;;;;;;;1.2;1.1;;;;;;;3.82;64.81445;95489.33;;;;
2020/02/16 05:19:27;;;;;;;1.2;1.1;;;;;;;3.82;64.81445;95489.33;;;;
2020/02/16 05:20:28;;;;;;;1.2;1.1;;;;;;;3.82;64.81445;95489.33;;;;
2020/02/16 05:21:28;;;;;;;1.2;1.1;;;;;;;3.82;64.81445;95489.33;;;;
2020/02/16 05:22:29;;;;;;;1.2;1.1;;;;;;;3.82;64.81445;95489.33;;;;
2020/02/16 05:23:30;;;;;;;1.2;1.1;;;;;;;3.82;64.81445;95489.33;;;;
2020/02/16 05:24:30;;;;;;;1.4;1.3;;;;;;;4.19;64.3418;95506.56;;;;
2020/02/16 05:25:30;;;;;;;1.4;1.3;;;;;;;4.19;64.3418;95506.56;;;;
2020/02/16 05:26:31;;;;;;;1.4;1.3;;;;;;;4.19;64.3418;95506.56;;;;
2020/02/16 05:27:31;;;;;;;2;1.6;;;;;;;4.3;64.00879;95514.87;;;;
2020/02/16 05:28:32;;;;;;;2;1.6;;;;;;;4.3;64.00879;95514.87;;;;
2020/02/16 05:29:32;;;;;;;2;1.6;;;;;;;4.3;64.00879;95514.87;;;;
2020/02/16 05:30:33;;;;;;;2;1.6;;;;;;;4.3;64.00879;95514.87;;;;
2020/02/16 05:31:34;;;;;;;2;1.6;;;;;;;4.3;64.00879;95514.87;;;;
2020/02/16 05:32:35;;;;;;;2;1.6;;;;;;;4.3;64.00879;95514.87;;;;
2020/02/16 05:33:35;;;;;;;2;1.6;;;;;;;4.3;64.00879;95514.87;;;;
2020/02/16 05:34:35;;;;;;;2;1.6;;;;;;;4.3;64.00879;95514.87;;;;
2020/02/16 05:35:36;;;;;;;2;1.6;;;;;;;4.3;64.00879;95514.87;;;;
2020/02/16 05:36:36;;;;;;;2;1.6;;;;;;;4.3;64.00879;95514.87;;;;
2020/02/16 05:37:37;;;;;;;2;1.6;;;;;;;4.3;64.00879;95514.87;;;;
2020/02/16 05:38:37;;;;;;;3.05;1.9;;;;;;;4.47;63.79199;95513.59;;;;
2020/02/16 05:39:38;;;;;;;3.05;1.9;;;;;;;4.47;63.79199;95513.59;;;;
2020/02/16 05:40:38;;;;;;;3.2;1.9;;;;;;;4.54;63.48438;95502.45;;;;
2020/02/16 05:41:39;;;;;;;3.2;1.9;;;;;;;4.54;63.48438;95502.45;;;;
2020/02/16 05:42:39;;;;;;;3.2;1.9;;;;;;;4.54;63.48438;95502.45;;;;
2020/02/16 05:43:40;;;;;;;3.2;1.9;;;;;;;4.54;63.48438;95502.45;;;;
2020/02/16 05:44:40;;;;;;;3.2;1.9;;;;;;;4.54;63.48438;95502.45;;;;
2020/02/16 05:45:41;;;;;;;3.2;1.9;;;;;;;4.54;63.48438;95502.45;;;;
2020/02/16 05:46:41;;;;;;;3.2;1.9;;;;;;;4.54;63.48438;95502.45;;;;
2020/02/16 05:47:42;;;;;;;3.2;1.9;;;;;;;4.54;63.48438;95502.45;;;;
2020/02/16 05:48:42;;;;;;;3.2;1.9;;;;;;;4.54;63.48438;95502.45;;;;
2020/02/16 05:49:43;;;;;;;3.2;1.9;;;;;;;4.54;63.48438;95502.45;;;;
2020/02/16 05:50:43;;;;;;;3.2;1.9;;;;;;;4.54;63.48438;95502.45;;;;
2020/02/16 05:51:44;;;;;;;2.7;1.8;;;;;;;4.64;63.47754;95510.14;;;;
2020/02/16 05:52:44;;;;;;;2.7;1.8;;;;;;;4.64;63.47754;95510.14;;;;
2020/02/16 05:53:44;;;;;;;2.7;1.8;;;;;;;4.64;63.47754;95510.14;;;;
2020/02/16 05:54:45;;;;;;;2.7;1.8;;;;;;;4.64;63.47754;95510.14;;;;
2020/02/16 05:55:45;;;;;;;2.7;1.8;;;;;;;4.64;63.47754;95510.14;;;;
2020/02/16 05:56:46;;;;;;;2.7;1.8;;;;;;;4.64;63.47754;95510.14;;;;
2020/02/16 05:57:46;;;;;;;2.7;1.8;;;;;;;4.64;63.47754;95510.14;;;;
2020/02/16 05:58:46;;;;;;;2.7;1.8;;;;;;;4.64;63.47754;95510.14;;;;
2020/02/16 05:59:47;;;;;;;2.7;1.8;;;;;;;4.64;63.47754;95510.14;;;;
2020/02/16 06:00:47;;;;;;;2.7;1.8;;;;;;;4.64;63.47754;95510.14;;;;
2020/02/16 06:01:48;;;;;;;2.1;1.6;;;;;;;4.66;63.64941;95511.69;;;;
2020/02/16 06:02:48;;;;;;;2.1;1.6;;;;;;;4.66;63.64941;95511.69;;;;
2020/02/16 06:03:49;;;;;;;2.1;1.6;;;;;;;4.66;63.64941;95511.69;;;;
2020/02/16 06:04:49;;;;;;;2.1;1.6;;;;;;;4.66;63.64941;95511.69;;;;
2020/02/16 06:05:50;;;;;;;2.1;1.6;;;;;;;4.66;63.64941;95511.69;;;;
2020/02/16 06:06:50;;;;;;;2.1;1.6;;;;;;;4.66;63.64941;95511.69;;;;
2020/02/16 06:07:50;;;;;;;2.1;1.6;;;;;;;4.66;63.64941;95511.69;;;;
2020/02/16 06:08:51;;;;;;;2.1;1.6;;;;;;;4.66;63.64941;95511.69;;;;
2020/02/16 06:09:51;;;;;;;2.1;1.6;;;;;;;4.66;63.64941;95511.69;;;;
2020/02/16 06:10:52;;;;;;;2.1;1.6;;;;;;;4.66;63.64941;95511.69;;;;
2020/02/16 06:11:52;;;;;;;2.1;1.6;;;;;;;4.66;63.64941;95511.69;;;;
2020/02/16 06:12:53;;;;;;;3.1;1.7;;;;;;;4.58;63.71094;95509.15;;;;
2020/02/16 06:13:54;;;;;;;3.1;1.7;;;;;;;4.58;63.71094;95509.15;;;;
2020/02/16 06:14:54;;;;;;;3.1;1.7;;;;;;;4.58;63.71094;95509.15;;;;
2020/02/16 06:15:54;;;;;;;3.1;1.7;;;;;;;4.58;63.71094;95509.15;;;;
2020/02/16 06:16:55;;;;;;;3.1;1.7;;;;;;;4.58;63.71094;95509.15;;;;
2020/02/16 06:17:55;;;;;;;3.1;1.7;;;;;;;4.58;63.71094;95509.15;;;;
2020/02/16 06:18:56;;;;;;;3.1;1.7;;;;;;;4.58;63.71094;95509.15;;;;
2020/02/16 06:19:56;;;;;;;3.1;1.7;;;;;;;4.58;63.71094;95509.15;;;;
2020/02/16 06:20:57;;;;;;;3.1;1.7;;;;;;;4.58;63.71094;95509.15;;;;
2020/02/16 06:21:57;;;;;;;3.1;1.7;;;;;;;4.58;63.71094;95509.15;;;;
2020/02/16 06:22:57;;;;;;;1.8;1.5;;;;;;;4.48;63.8457;95513.09;;;;
2020/02/16 06:23:58;;;;;;;1.8;1.5;;;;;;;4.48;63.8457;95513.09;;;;